Time;durP1;ratioP1;P1;durP2;ratioP2;P2;SDS_P1;SDS_P2;PMS_P1;PMS_P2;Temp;Humidity;BMP_temperature;BMP_pressure;BME280_temperature;BME280_humidity;BME280_pressure;Samples;Min_cycle;Max_cycle;Signal;HPM_P1;HPM_P2
2024/04/04 00:00:27;;;;;;;1.37;1.27;;;;;;;13.46;40.19;96342.13;5051873;28;20230;-89
2024/04/04 00:02:53;;;;;;;1.63;1.10;;;;;;;13.56;40.17;96333.06;5052595;28;20273;-89
2024/04/04 00:05:20;;;;;;;1.70;1.03;;;;;;;13.49;40.32;96323.91;5052582;28;20206;-88
2024/04/04 00:07:46;;;;;;;2.27;1.27;;;;;;;13.14;40.45;96260.41;5052029;28;20627;-88
2024/04/04 00:10:13;;;;;;;1.00;1.00;;;;;;;13.03;42.52;96325.91;5052552;28;20284;-88
2024/04/04 00:12:42;;;;;;;1.30;1.10;;;;;;;12.81;42.54;96318.72;5051672;28;20209;-89
2024/04/04 00:15:10;;;;;;;1.57;1.10;;;;;;;12.95;42.62;96326.66;5052314;28;20209;-88
2024/04/04 00:17:36;;;;;;;1.83;1.20;;;;;;;12.98;43.20;96326.84;5051666;28;20676;-88
2024/04/04 00:20:04;;;;;;;1.50;1.37;;;;;;;12.86;43.32;96299.13;5051610;28;20198;-89
2024/04/04 00:22:30;;;;;;;2.17;1.20;;;;;;;12.97;43.45;96333.28;5052261;28;20236;-89
2024/04/04 00:24:57;;;;;;;0.93;0.80;;;;;;;12.97;43.84;96335.16;5052455;28;20241;-89
2024/04/04 00:27:23;;;;;;;1.17;1.07;;;;;;;12.20;43.95;96241.00;5051457;28;20212;-89
2024/04/04 00:29:49;;;;;;;1.90;1.30;;;;;;;12.69;43.17;96323.84;5051996;28;20201;-89
2024/04/04 00:32:17;;;;;;;1.03;1.03;;;;;;;12.32;43.04;96261.78;5047749;28;20657;-89
2024/04/04 00:34:43;;;;;;;1.17;1.07;;;;;;;12.94;42.05;96325.88;5032260;28;20199;-89
2024/04/04 00:37:10;;;;;;;2.60;1.23;;;;;;;12.70;41.60;96288.06;5031993;28;20294;-89
2024/04/04 00:39:37;;;;;;;1.27;1.03;;;;;;;13.16;41.67;96334.91;5032755;28;20294;-89
2024/04/04 00:42:04;;;;;;;1.40;1.17;;;;;;;12.79;43.63;96322.81;5032088;28;20282;-90
2024/04/04 00:44:30;;;;;;;1.40;1.30;;;;;;;12.33;44.83;96311.38;5035839;28;20654;-89
2024/04/04 00:46:56;;;;;;;2.30;1.10;;;;;;;12.16;44.62;96309.38;5037451;28;20206;-89
2024/04/04 00:49:25;;;;;;;1.30;1.20;;;;;;;12.36;43.88;96304.66;5056037;28;20209;-90
2024/04/04 00:51:51;;;;;;;1.73;1.23;;;;;;;12.32;43.59;96315.16;5055415;28;20208;-88
2024/04/04 00:54:19;;;;;;;1.10;1.00;;;;;;;12.29;44.25;96307.75;5056160;28;20205;-89
2024/04/04 00:56:45;;;;;;;1.50;1.00;;;;;;;12.30;44.00;96311.19;5055169;28;20202;-90
2024/04/04 00:59:13;;;;;;;4.23;1.20;;;;;;;12.19;43.17;96273.28;5055508;28;20228;-89
2024/04/04 01:01:40;;;;;;;2.13;1.40;;;;;;;12.64;43.03;96310.63;5054288;28;20208;-90
2024/04/04 01:04:07;;;;;;;1.43;1.33;;;;;;;12.48;43.99;96319.03;5047823;28;20698;-90
2024/04/04 01:06:35;;;;;;;1.67;1.10;;;;;;;12.60;43.77;96305.13;5055457;28;20206;-89
2024/04/04 01:09:02;;;;;;;1.80;0.90;;;;;;;12.35;44.68;96301.22;5045884;28;20195;-90
2024/04/04 01:11:28;;;;;;;1.10;1.00;;;;;;;12.50;44.82;96313.38;5040638;28;20292;-90
2024/04/04 01:13:55;;;;;;;2.87;1.13;;;;;;;12.63;43.56;96309.84;5055690;28;20328;-90
2024/04/04 01:16:21;;;;;;;1.23;1.13;;;;;;;12.55;44.49;96317.81;5038348;28;20692;-89
2024/04/04 01:18:48;;;;;;;0.97;0.97;;;;;;;12.61;44.40;96327.25;5054881;28;20210;-89
2024/04/04 01:21:14;;;;;;;0.90;0.90;;;;;;;12.67;43.77;96305.47;5055173;28;20240;-89
2024/04/04 01:23:42;;;;;;;1.13;1.03;;;;;;;12.60;44.26;96309.66;5054446;28;20236;-89
2024/04/04 01:26:08;;;;;;;1.63;1.20;;;;;;;12.27;43.70;96259.22;5055080;28;20206;-89
2024/04/04 01:28:35;;;;;;;1.57;1.10;;;;;;;12.58;43.74;96306.50;5054775;28;20208;-89
2024/04/04 01:31:01;;;;;;;3.90;1.37;;;;;;;12.70;43.81;96307.53;5055117;28;20209;-88
2024/04/04 01:33:30;;;;;;;2.43;1.10;;;;;;;12.27;45.78;96307.25;5054834;28;20248;-89
2024/04/04 01:35:56;;;;;;;1.43;0.97;;;;;;;12.58;45.38;96309.97;5054359;28;20660;-89
2024/04/04 01:38:23;;;;;;;1.17;1.00;;;;;;;12.27;46.04;96283.22;5055030;28;20204;-89
2024/04/04 01:40:50;;;;;;;1.47;1.10;;;;;;;12.46;46.35;96325.75;5055832;28;20205;-89
2024/04/04 01:43:17;;;;;;;1.80;1.20;;;;;;;12.43;45.93;96327.16;5054543;28;20245;-89
2024/04/04 01:45:43;;;;;;;1.27;1.17;;;;;;;12.24;46.58;96319.34;5054306;28;20204;-89
2024/04/04 01:48:10;;;;;;;3.00;1.50;;;;;;;12.29;47.62;96322.97;5054805;28;20210;-89
2024/04/04 01:50:36;;;;;;;2.43;1.13;;;;;;;12.54;46.54;96332.25;5054300;28;20193;-89
2024/04/04 01:53:02;;;;;;;1.20;1.10;;;;;;;12.29;47.51;96325.63;5038770;28;20207;-89
2024/04/04 01:55:29;;;;;;;1.60;1.20;;;;;;;12.34;47.19;96322.84;5053211;28;20205;-89
2024/04/04 01:57:58;;;;;;;1.83;1.20;;;;;;;11.77;48.86;96331.31;5039971;28;20199;-89
2024/04/04 02:00:24;;;;;;;1.37;1.20;;;;;;;11.94;48.53;96326.16;5051099;28;20229;-89
2024/04/04 02:02:51;;;;;;;2.10;1.10;;;;;;;12.08;47.73;82959.72;5054031;28;20297;-89
2024/04/04 02:05:16;;;;;;;1.33;1.13;;;;;;;12.06;48.23;96340.84;5054150;28;20659;-88
2024/04/04 02:07:43;;;;;;;3.77;1.90;;;;;;;11.59;48.81;96281.56;5054309;28;20216;-89
2024/04/04 02:10:09;;;;;;;4.00;1.70;;;;;;;11.52;50.13;96309.41;5053358;28;20198;-89
2024/04/04 02:12:36;;;;;;;2.20;1.57;;;;;;;11.60;50.19;96331.91;5053911;28;20202;-89
2024/04/04 02:15:04;;;;;;;1.60;1.50;;;;;;;11.67;49.37;96337.63;5053348;28;20645;-89
2024/04/04 02:17:31;;;;;;;2.93;1.17;;;;;;;11.85;49.57;96333.28;5053375;28;20293;-89
2024/04/04 02:19:57;;;;;;;1.47;1.20;;;;;;;11.80;48.86;96341.34;5036864;28;20579;-89
2024/04/04 02:22:24;;;;;;;5.67;1.50;;;;;;;11.79;49.70;96345.13;5053876;28;20206;-89
2024/04/04 02:24:50;;;;;;;1.10;1.10;;;;;;;11.86;49.99;96328.75;5054046;28;20221;-90
2024/04/04 02:27:17;;;;;;;2.47;1.37;;;;;;;11.88;49.15;96321.22;5053877;28;20202;-89
2024/04/04 02:29:43;;;;;;;1.70;1.57;;;;;;;11.61;49.04;96306.81;5054432;28;20206;-91
2024/04/04 02:32:11;;;;;;;1.63;1.50;;;;;;;11.68;48.47;96315.22;5049491;28;20213;-89
2024/04/04 02:34:37;;;;;;;2.47;1.40;;;;;;;11.94;47.70;96328.03;5044585;28;20198;-90
2024/04/04 02:37:05;;;;;;;1.47;1.37;;;;;;;11.78;48.38;96274.22;5053792;28;20292;-90
2024/04/04 02:39:32;;;;;;;1.57;1.47;;;;;;;11.98;48.15;96324.47;5053964;28;20668;-90
2024/04/04 02:41:59;;;;;;;2.50;2.30;;;;;;;11.79;48.31;96315.78;5046636;28;20202;-91
2024/04/04 02:44:25;;;;;;;5.97;1.90;;;;;;;11.57;49.12;96295.19;5040182;28;20711;-90
2024/04/04 02:46:52;;;;;;;5.53;2.07;;;;;;;11.74;48.23;96297.25;5053830;28;20204;-89
2024/04/04 02:49:19;;;;;;;2.07;1.70;;;;;;;11.36;49.19;96280.72;5052894;28;20229;-90
2024/04/04 02:51:46;;;;;;;2.07;1.87;;;;;;;11.74;49.36;96319.34;5054849;28;20578;-89
2024/04/04 02:54:12;;;;;;;2.70;1.50;;;;;;;11.84;48.87;96314.91;5043108;28;20209;-90
2024/04/04 02:56:39;;;;;;;6.77;1.87;;;;;;;12.03;48.96;96317.44;5033369;28;20198;-89
2024/04/04 02:59:05;;;;;;;2.23;1.30;;;;;;;11.97;49.30;96306.09;5033543;28;20622;-89
2024/04/04 03:01:32;;;;;;;1.60;1.40;;;;;;;11.73;49.15;96317.78;5035253;28;20210;-89
2024/04/04 03:03:58;;;;;;;4.10;2.13;;;;;;;11.08;49.49;96245.34;5047280;28;20270;-90
2024/04/04 03:06:26;;;;;;;2.17;1.43;;;;;;;11.47;50.06;96298.09;5041606;28;20209;-90
2024/04/04 03:08:51;;;;;;;2.37;1.30;;;;;;;11.69;49.19;96322.13;5053194;28;20248;-91
2024/04/04 03:11:18;;;;;;;2.97;1.20;;;;;;;11.31;48.68;96260.31;5047628;28;20258;-83
2024/04/04 03:13:44;;;;;;;1.33;1.10;;;;;;;11.67;49.01;96326.19;5051400;28;20664;-83
2024/04/04 03:16:11;;;;;;;1.97;1.40;;;;;;;11.79;48.48;96326.44;5051277;28;20201;-83
2024/04/04 03:18:37;;;;;;;1.53;1.20;;;;;;;11.46;47.88;96259.97;5051841;28;20205;-83
2024/04/04 03:21:04;;;;;;;5.30;1.30;;;;;;;11.85;47.91;96329.81;5051393;28;20197;-84
2024/04/04 03:23:31;;;;;;;2.30;1.57;;;;;;;11.85;47.75;96316.47;5050768;28;20225;-84
2024/04/04 03:25:58;;;;;;;3.07;1.70;;;;;;;11.73;48.78;96292.97;5051645;28;20570;-84
2024/04/04 03:28:24;;;;;;;1.90;1.73;;;;;;;12.07;48.74;96334.41;5051283;28;20202;-88
2024/04/04 03:30:51;;;;;;;1.30;1.10;;;;;;;11.85;48.62;96327.97;5042315;28;20204;-88
2024/04/04 03:33:16;;;;;;;1.10;1.10;;;;;;;11.58;48.86;96314.66;5052196;28;20220;-89
2024/04/04 03:35:43;;;;;;;2.20;1.50;;;;;;;11.72;48.53;96318.06;5053109;28;20201;-88
2024/04/04 03:38:10;;;;;;;1.17;1.07;;;;;;;11.96;48.25;96332.00;5051704;28;20231;-88
2024/04/04 03:40:39;;;;;;;1.37;1.27;;;;;;;12.10;47.93;96325.81;5051458;28;20221;-83
2024/04/04 03:43:06;;;;;;;3.77;1.30;;;;;;;12.05;48.54;96326.72;5041677;28;20202;-84
2024/04/04 03:45:38;;;;;;;4.77;1.50;;;;;;;11.76;48.87;96314.50;5042401;28;20236;-83
2024/04/04 03:48:05;;;;;;;1.10;1.03;;;;;;;11.67;49.83;96331.50;5036951;28;20204;-83
2024/04/04 03:50:31;;;;;;;1.70;1.60;;;;;;;11.52;50.36;96319.28;5050214;28;20208;-84
2024/04/04 03:52:58;;;;;;;1.50;1.40;;;;;;;11.58;50.34;96327.97;5051148;28;20198;-83
2024/04/04 03:55:23;;;;;;;2.87;1.80;;;;;;;11.69;50.10;96324.00;5050277;28;20198;-84
2024/04/04 03:57:51;;;;;;;2.17;1.53;;;;;;;11.84;49.76;96325.56;5050330;28;20197;-84
2024/04/04 04:00:17;;;;;;;1.73;1.30;;;;;;;11.89;49.13;96334.28;5050983;28;20617;-83
2024/04/04 04:02:45;;;;;;;2.67;1.63;;;;;;;12.06;47.89;96324.84;5050761;28;20201;-84
2024/04/04 04:05:11;;;;;;;2.33;1.30;;;;;;;11.87;49.02;96324.97;5033482;28;20218;-82
2024/04/04 04:07:37;;;;;;;1.33;1.10;;;;;;;11.54;48.37;96310.97;5042507;28;20202;-83
2024/04/04 04:10:04;;;;;;;2.83;1.33;;;;;;;11.42;48.26;96284.84;5050344;28;20620;-83
2024/04/04 04:12:30;;;;;;;1.10;1.03;;;;;;;11.76;48.04;96321.72;5045422;28;20199;-88
2024/04/04 04:14:58;;;;;;;1.80;1.43;;;;;;;11.69;48.06;96292.00;5052943;28;20284;-87
2024/04/04 04:17:25;;;;;;;1.30;1.17;;;;;;;11.51;48.40;96289.19;5053885;28;20236;-88
2024/04/04 04:19:51;;;;;;;1.50;1.40;;;;;;;11.69;48.33;96310.66;5055422;28;20205;-88
2024/04/04 04:22:18;;;;;;;1.40;1.30;;;;;;;11.78;49.48;96332.09;5056061;28;20665;-88
2024/04/04 04:24:44;;;;;;;1.23;1.13;;;;;;;11.63;49.88;96330.53;5056389;28;20297;-90
2024/04/04 04:27:10;;;;;;;2.00;1.00;;;;;;;11.72;49.56;96323.41;5055547;28;20213;-87
2024/04/04 04:29:36;;;;;;;1.93;1.37;;;;;;;11.73;49.99;96325.78;5055169;28;20205;-88
2024/04/04 04:32:05;;;;;;;2.13;1.30;;;;;;;11.51;50.14;96313.16;5056427;28;20206;-88
2024/04/04 04:34:33;;;;;;;2.03;1.20;;;;;;;11.88;50.05;96322.00;5038674;28;20202;-87
2024/04/04 04:37:03;;;;;;;6.37;1.40;;;;;;;11.83;50.62;96318.63;5055440;28;20620;-88
2024/04/04 04:39:29;;;;;;;1.53;1.27;;;;;;;11.41;51.22;96270.72;5055593;28;20201;-88
2024/04/04 04:41:56;;;;;;;1.43;1.33;;;;;;;11.73;50.63;96319.63;5055139;28;20197;-88
2024/04/04 04:44:23;;;;;;;2.33;1.07;;;;;;;11.46;51.33;96288.47;5049262;28;20224;-89
2024/04/04 04:46:50;;;;;;;1.20;1.10;;;;;;;11.83;50.95;96316.78;5042100;28;20237;-87
2024/04/04 04:49:18;;;;;;;4.23;1.30;;;;;;;11.75;49.49;96275.59;5036229;28;20198;-87
2024/04/04 04:51:45;;;;;;;1.00;0.90;;;;;;;11.73;49.89;96288.47;5039445;28;20230;-89
2024/04/04 04:54:11;;;;;;;1.43;1.27;;;;;;;11.84;50.71;96323.69;5048205;28;20228;-87
2024/04/04 04:56:37;;;;;;;2.30;1.30;;;;;;;11.35;51.02;96242.63;5034835;28;20637;-87
2024/04/04 04:59:04;;;;;;;7.37;1.40;;;;;;;11.97;50.78;96333.56;5040014;28;20233;-88
2024/04/04 05:01:35;;;;;;;1.30;1.20;;;;;;;11.92;51.01;96301.66;5040708;28;20206;-88
2024/04/04 05:04:01;;;;;;;3.60;1.30;;;;;;;11.57;50.83;96241.09;5041781;28;20231;-87
2024/04/04 05:06:30;;;;;;;1.33;1.10;;;;;;;12.28;49.58;96313.41;5053989;28;20198;-88
2024/04/04 05:08:55;;;;;;;1.20;1.10;;;;;;;12.49;49.72;96325.16;5053926;28;20209;-88
2024/04/04 05:11:23;;;;;;;1.37;1.27;;;;;;;12.38;49.70;96302.47;5053462;28;20209;-89
2024/04/04 05:13:48;;;;;;;2.40;1.60;;;;;;;12.71;49.72;96316.34;5053301;28;20202;-88
2024/04/04 05:16:15;;;;;;;4.77;1.70;;;;;;;12.62;50.46;96323.50;5053390;28;20225;-89
2024/04/04 05:18:41;;;;;;;3.33;2.23;;;;;;;12.67;50.52;96318.81;5053831;28;20209;-88
2024/04/04 05:21:08;;;;;;;2.60;1.60;;;;;;;12.45;49.71;96326.84;5053477;28;20292;-88
2024/04/04 05:23:35;;;;;;;3.80;2.23;;;;;;;12.44;49.84;96350.09;5053988;28;20560;-89
2024/04/04 05:26:02;;;;;;;7.87;2.60;;;;;;;12.36;50.79;96334.81;5041231;28;20213;-88
2024/04/04 05:28:29;;;;;;;7.07;2.07;;;;;;;12.28;51.70;96302.72;5053960;28;20206;-88
2024/04/04 05:30:56;;;;;;;9.63;4.90;;;;;;;12.55;51.76;96344.50;5041278;28;21020;-88
2024/04/04 05:33:22;;;;;;;8.50;3.30;;;;;;;12.48;51.75;96324.38;5053815;28;20583;-89
2024/04/04 05:35:49;;;;;;;3.53;2.20;;;;;;;12.68;50.22;96330.28;5040564;28;20201;-87
2024/04/04 05:38:15;;;;;;;6.53;1.63;;;;;;;12.81;48.22;96325.97;5053602;28;20202;-89
2024/04/04 05:40:43;;;;;;;1.57;1.40;;;;;;;13.06;46.02;96317.28;5040805;28;20217;-87
2024/04/04 05:43:09;;;;;;;2.40;1.40;;;;;;;13.25;45.71;96325.09;5054155;28;20202;-88
2024/04/04 05:45:35;;;;;;;5.23;1.70;;;;;;;13.25;47.27;96287.69;5053087;28;20225;-87
2024/04/04 05:48:01;;;;;;;4.77;2.33;;;;;;;13.25;46.04;96318.97;5053949;28;20220;-87
2024/04/04 05:50:29;;;;;;;6.17;2.30;;;;;;;13.19;45.47;96311.03;5053418;28;20198;-87
2024/04/04 05:52:55;;;;;;;2.63;1.53;;;;;;;13.35;45.72;96324.00;5053480;28;20585;-86
2024/04/04 05:55:22;;;;;;;2.37;1.77;;;;;;;12.85;45.77;96223.53;5053594;28;20201;-86
2024/04/04 05:57:49;;;;;;;5.17;1.40;;;;;;;13.80;44.68;96331.84;5052463;28;20209;-87
2024/04/04 06:00:17;;;;;;;2.60;1.40;;;;;;;13.69;44.83;96317.97;5051562;28;20256;-87
2024/04/04 06:02:42;;;;;;;5.10;1.60;;;;;;;13.86;45.26;96315.34;5053134;28;20230;-87
2024/04/04 06:05:09;;;;;;;3.83;1.70;;;;;;;13.57;47.46;96286.50;5052919;28;20308;-87
2024/04/04 06:07:35;;;;;;;4.73;1.80;;;;;;;14.12;46.37;96346.66;5053036;28;20205;-88
2024/04/04 06:10:03;;;;;;;2.83;1.60;;;;;;;13.78;44.68;96313.41;5053291;28;20198;-86
2024/04/04 06:12:28;;;;;;;4.13;1.33;;;;;;;13.99;44.18;96315.50;5037887;28;20197;-86
2024/04/04 06:14:57;;;;;;;1.40;1.30;;;;;;;14.30;44.32;96337.53;5040518;28;20628;-86
2024/04/04 06:17:22;;;;;;;1.60;1.30;;;;;;;14.36;43.61;96314.06;5051570;28;20228;-86
2024/04/04 06:19:50;;;;;;;4.13;1.53;;;;;;;14.51;42.97;96323.53;5040868;28;20573;-86
2024/04/04 06:22:16;;;;;;;1.57;1.47;;;;;;;14.54;43.18;96330.94;5052964;28;20294;-86
2024/04/04 06:24:44;;;;;;;3.83;1.70;;;;;;;14.86;41.47;96330.38;5052250;28;20220;-86
2024/04/04 06:27:10;;;;;;;1.30;1.10;;;;;;;15.20;40.75;96339.41;5052746;28;20613;-86
2024/04/04 06:29:37;;;;;;;4.37;1.53;;;;;;;15.02;40.28;96270.91;5052497;28;20259;-86
2024/04/04 06:32:05;;;;;;;1.90;1.50;;;;;;;15.45;40.25;96320.84;5052546;28;20212;-85
2024/04/04 06:34:35;;;;;;;2.20;1.77;;;;;;;15.44;39.91;96330.78;5052215;28;20626;-87
2024/04/04 06:37:01;;;;;;;1.40;1.30;;;;;;;15.86;39.82;96342.41;5048509;28;20681;-86
2024/04/04 06:39:28;;;;;;;1.37;1.27;;;;;;;16.06;39.61;96345.44;5041695;28;20263;-85
2024/04/04 06:41:54;;;;;;;3.53;1.60;;;;;;;15.92;39.62;96310.03;5051755;28;20191;-86
2024/04/04 06:44:20;;;;;;;1.67;1.57;;;;;;;16.52;39.50;96338.28;5051399;28;20230;-85
2024/04/04 06:46:46;;;;;;;3.20;1.23;;;;;;;16.66;38.52;96344.16;5051815;28;20250;-85
2024/04/04 06:49:15;;;;;;;5.10;1.40;;;;;;;16.86;38.57;96332.59;5052133;28;20612;-85
2024/04/04 06:51:41;;;;;;;2.57;1.17;;;;;;;16.79;38.27;96355.78;5048131;28;20221;-86
2024/04/04 06:54:07;;;;;;;3.43;1.30;;;;;;;16.80;38.45;96363.53;5042734;28;20199;-86
2024/04/04 06:56:33;;;;;;;3.37;1.43;;;;;;;16.90;37.68;96364.22;5051805;28;20200;-85
2024/04/04 06:59:01;;;;;;;5.23;1.87;;;;;;;16.66;38.55;96356.81;5052131;28;20295;-85
2024/04/04 07:01:35;;;;;;;2.93;2.53;;;;;;;16.91;38.74;96353.13;5088062;27;1396779;-85
2024/04/04 07:04:01;;;;;;;5.70;2.03;;;;;;;17.34;38.82;96359.91;5128958;28;20202;-85
2024/04/04 07:06:28;;;;;;;4.07;1.90;;;;;;;17.20;38.19;96352.19;5123975;28;20194;-85
2024/04/04 07:08:54;;;;;;;4.57;2.37;;;;;;;16.58;38.36;96297.47;5108759;28;20568;-83
2024/04/04 07:11:21;;;;;;;2.53;2.13;;;;;;;17.03;38.67;96355.81;5108162;28;20199;-85
2024/04/04 07:13:47;;;;;;;3.73;1.83;;;;;;;17.29;37.86;96315.19;5108754;28;20260;-84
2024/04/04 07:16:14;;;;;;;2.00;1.57;;;;;;;17.63;37.27;96350.84;5108675;28;20207;-84
2024/04/04 07:18:42;;;;;;;2.53;1.90;;;;;;;18.12;36.58;96355.41;5108785;28;20206;-85
2024/04/04 07:21:09;;;;;;;5.00;2.67;;;;;;;17.19;37.48;96306.78;5108472;28;20227;-84
2024/04/04 07:23:34;;;;;;;8.93;2.30;;;;;;;17.75;36.46;96318.56;5108487;28;20192;-84
2024/04/04 07:26:01;;;;;;;1.97;1.40;;;;;;;18.13;35.66;96355.09;5122100;28;20572;-84
2024/04/04 07:28:27;;;;;;;4.13;1.93;;;;;;;18.20;35.64;96320.28;5108392;28;20202;-85
2024/04/04 07:30:54;;;;;;;2.93;1.50;;;;;;;18.33;35.65;96356.81;5115198;28;20187;-85
2024/04/04 07:33:20;;;;;;;1.40;1.30;;;;;;;18.21;35.94;96353.38;5114608;28;20654;-87
2024/04/04 07:35:49;;;;;;;3.10;1.40;;;;;;;18.53;35.10;96351.59;5108386;28;20416;-84
2024/04/04 07:38:15;;;;;;;5.07;1.70;;;;;;;18.50;34.65;96349.56;5121517;28;20749;-84
2024/04/04 07:40:42;;;;;;;2.70;2.07;;;;;;;18.72;34.54;96353.69;5114878;28;20218;-84
2024/04/04 07:43:09;;;;;;;5.33;1.87;;;;;;;18.55;33.81;96325.09;5114600;28;20207;-84
2024/04/04 07:45:37;;;;;;;3.53;1.90;;;;;;;18.93;33.15;96348.84;5107666;28;20287;-84
2024/04/04 07:48:04;;;;;;;2.37;2.00;;;;;;;18.82;33.86;96353.19;5108234;28;20200;-84
2024/04/04 07:50:31;;;;;;;5.30;2.47;;;;;;;19.15;33.63;96342.09;5107913;28;20203;-84
2024/04/04 07:52:58;;;;;;;2.07;1.80;;;;;;;19.31;32.58;96347.50;5107433;28;20588;-85
2024/04/04 07:55:25;;;;;;;2.80;1.80;;;;;;;19.36;32.74;96349.13;5107890;28;20196;-84
2024/04/04 07:57:51;;;;;;;2.00;1.80;;;;;;;19.57;32.34;96346.19;5109871;28;20200;-84
2024/04/04 08:00:18;;;;;;;7.87;7.27;;;;;;;20.30;31.83;96339.34;5127776;28;20283;-84
2024/04/04 08:02:45;;;;;;;3.27;2.37;;;;;;;19.84;31.11;96325.63;5112957;28;20211;-84
2024/04/04 08:05:12;;;;;;;4.30;3.40;;;;;;;20.12;30.76;96323.53;5116644;28;20218;-84
2024/04/04 08:07:38;;;;;;;3.67;3.37;;;;;;;20.50;29.91;96344.41;5127855;28;20199;-84
2024/04/04 08:10:09;;;;;;;4.47;1.43;;;;;;;19.56;30.76;96350.81;5118838;28;20195;-84
2024/04/04 08:12:35;;;;;;;1.80;1.50;;;;;;;19.98;31.43;96353.72;5112051;28;20203;-84
2024/04/04 08:15:03;;;;;;;1.73;1.63;;;;;;;20.47;30.54;96350.50;5113773;28;20191;-84
2024/04/04 08:17:29;;;;;;;5.47;1.73;;;;;;;20.69;30.85;96354.44;5110911;28;20288;-84
2024/04/04 08:19:57;;;;;;;5.40;2.53;;;;;;;20.73;29.57;96313.94;5094021;28;20682;-84
2024/04/04 08:22:22;;;;;;;8.10;3.53;;;;;;;21.16;29.38;96336.34;5110403;28;20223;-87
2024/04/04 08:24:50;;;;;;;4.67;2.17;;;;;;;20.87;29.57;96353.97;5114245;28;20235;-84
2024/04/04 08:27:17;;;;;;;2.33;1.77;;;;;;;20.86;29.58;96355.91;5114052;28;20610;-84
2024/04/04 08:29:47;;;;;;;2.87;1.60;;;;;;;20.77;28.83;96355.38;5103060;28;20205;-84
2024/04/04 08:32:13;;;;;;;10.97;2.13;;;;;;;20.39;29.05;96346.09;5111684;28;20211;-84
2024/04/04 08:34:40;;;;;;;3.43;1.33;;;;;;;20.18;28.88;96337.56;5113632;28;20199;-84
2024/04/04 08:37:06;;;;;;;2.93;1.80;;;;;;;20.44;29.47;96339.59;5095682;28;20277;-84
2024/04/04 08:39:36;;;;;;;4.77;1.50;;;;;;;20.24;28.40;96334.19;5093399;28;20277;-85
2024/04/04 08:42:03;;;;;;;1.73;1.50;;;;;;;20.64;27.81;96338.50;5112120;28;20196;-84
2024/04/04 08:44:32;;;;;;;3.93;1.67;;;;;;;20.39;28.92;96305.53;5113371;28;20191;-84
2024/04/04 08:46:59;;;;;;;6.63;1.50;;;;;;;21.06;29.31;96337.72;5107898;28;20283;-84
2024/04/04 08:49:27;;;;;;;2.30;1.57;;;;;;;21.15;27.63;96323.97;5105722;28;20204;-84
2024/04/04 08:51:53;;;;;;;5.33;1.60;;;;;;;21.09;28.98;96320.75;5093552;28;20229;-83
2024/04/04 08:54:21;;;;;;;4.73;1.77;;;;;;;21.64;28.61;96326.69;5106534;28;20188;-84
2024/04/04 08:56:47;;;;;;;2.90;1.87;;;;;;;21.39;28.39;96323.63;5092847;28;20208;-84
2024/04/04 08:59:14;;;;;;;4.33;1.47;;;;;;;21.47;28.63;96327.22;5106346;28;20192;-84
2024/04/04 09:01:41;;;;;;;4.27;1.70;;;;;;;20.80;29.45;96308.66;5100336;28;20235;-83
2024/04/04 09:04:08;;;;;;;1.90;1.70;;;;;;;21.42;29.98;96311.28;5098948;28;20287;-84
2024/04/04 09:06:35;;;;;;;2.33;1.80;;;;;;;21.40;27.86;96324.38;5099079;28;20771;-85
2024/04/04 09:09:02;;;;;;;3.30;1.83;;;;;;;21.77;27.64;96324.59;5112723;28;20676;-84
2024/04/04 09:11:28;;;;;;;5.73;2.10;;;;;;;21.24;27.43;96314.44;5099333;28;20767;-84
2024/04/04 09:14:05;;;;;;;5.23;1.80;;;;;;;21.40;27.33;96300.81;5113321;28;20211;-84
2024/04/04 09:16:31;;;;;;;3.63;1.60;;;;;;;22.04;27.65;96305.59;5092544;28;20290;-84
2024/04/04 09:19:11;;;;;;;2.93;1.50;;;;;;;21.35;27.04;96324.72;5092836;28;20211;-84
2024/04/04 09:21:37;;;;;;;4.90;1.97;;;;;;;21.68;26.45;96318.63;5092606;28;20479;-84
2024/04/04 09:24:05;;;;;;;2.90;1.80;;;;;;;21.46;27.86;96312.13;5105649;28;20683;-84
2024/04/04 09:26:31;;;;;;;4.73;2.40;;;;;;;21.83;26.97;96325.81;5102814;28;20206;-84
2024/04/04 09:28:58;;;;;;;3.27;1.87;;;;;;;21.29;27.57;96269.25;5098794;28;20195;-84
2024/04/04 09:31:27;;;;;;;2.00;1.57;;;;;;;21.15;26.78;96294.97;5102243;28;20200;-84
2024/04/04 09:33:56;;;;;;;1.60;1.50;;;;;;;21.30;26.11;96300.63;5096614;28;20191;-83
2024/04/04 09:36:25;;;;;;;2.37;1.60;;;;;;;22.26;26.24;96282.25;5101096;28;20228;-83
2024/04/04 09:38:54;;;;;;;5.33;1.93;;;;;;;21.81;26.93;96263.09;5097199;28;20215;-84
2024/04/04 09:41:20;;;;;;;2.40;2.10;;;;;;;21.51;27.51;96314.50;5112542;28;20223;-84
2024/04/04 09:43:48;;;;;;;2.77;1.80;;;;;;;22.05;26.55;96310.66;5098672;28;20222;-84
2024/04/04 09:46:16;;;;;;;2.93;2.00;;;;;;;21.73;26.75;96321.81;5099816;28;20253;-83
2024/04/04 09:48:45;;;;;;;5.17;2.13;;;;;;;22.12;26.21;96304.53;5105407;28;20693;-83
2024/04/04 09:51:13;;;;;;;3.40;1.80;;;;;;;22.08;26.06;96284.75;5105230;28;20249;-83
2024/04/04 09:53:41;;;;;;;2.20;1.80;;;;;;;21.98;26.81;96311.31;5092461;28;20547;-83
2024/04/04 09:56:09;;;;;;;4.07;1.80;;;;;;;22.49;26.26;96307.34;5091800;28;20226;-85
2024/04/04 09:58:35;;;;;;;2.63;1.67;;;;;;;22.29;26.78;96295.88;5104814;28;20200;-84
2024/04/04 10:01:19;;;;;;;3.73;1.80;;;;;;;22.14;26.45;96294.13;5105041;28;20255;-84
2024/04/04 10:03:49;;;;;;;2.47;1.73;;;;;;;22.14;26.32;96286.78;5091589;28;20298;-84
2024/04/04 10:06:35;;;;;;;6.20;1.83;;;;;;;22.22;26.61;96287.63;5091648;28;20196;-83
2024/04/04 10:09:14;;;;;;;3.60;1.70;;;;;;;21.60;27.12;96266.28;5104962;28;20286;-85
2024/04/04 10:11:42;;;;;;;3.03;1.70;;;;;;;22.45;26.10;96295.66;5100499;28;20199;-83
2024/04/04 10:14:12;;;;;;;4.13;1.77;;;;;;;22.10;25.17;96285.91;5109020;28;20661;-84
2024/04/04 10:16:44;;;;;;;3.07;1.60;;;;;;;21.90;25.23;96266.31;5091568;28;20201;-83
2024/04/04 10:19:11;;;;;;;2.80;1.63;;;;;;;22.60;25.67;96285.75;5091520;28;20192;-84
2024/04/04 10:21:39;;;;;;;5.67;1.73;;;;;;;22.32;25.13;96207.59;5102136;28;20292;-84
2024/04/04 10:24:05;;;;;;;2.27;1.50;;;;;;;23.12;25.08;96283.97;5111758;28;20241;-84
2024/04/04 10:26:34;;;;;;;2.17;1.87;;;;;;;22.60;25.56;96269.47;5111880;28;20565;-84
2024/04/04 10:29:00;;;;;;;2.00;1.50;;;;;;;23.23;24.22;96278.63;5093397;28;20226;-84
2024/04/04 10:31:27;;;;;;;3.37;1.63;;;;;;;22.44;24.33;96272.41;5102723;28;20248;-84
2024/04/04 10:34:04;;;;;;;1.63;1.47;;;;;;;22.65;24.71;96275.38;5093501;28;20200;-83
2024/04/04 10:36:41;;;;;;;3.43;2.53;;;;;;;22.83;23.91;96274.75;5104411;28;20315;-84
2024/04/04 10:39:09;;;;;;;1.90;1.70;;;;;;;22.16;24.77;96278.28;5099073;28;20196;-84
2024/04/04 10:41:38;;;;;;;2.83;1.50;;;;;;;21.34;25.59;96210.22;5111172;28;20222;-84
2024/04/04 10:44:14;;;;;;;1.33;1.20;;;;;;;22.77;25.08;96274.31;5111554;28;20290;-84
2024/04/04 10:46:47;;;;;;;3.93;1.87;;;;;;;23.21;24.02;96261.94;5108419;28;20196;-83
2024/04/04 10:49:13;;;;;;;2.97;1.60;;;;;;;23.34;24.17;96260.47;5090784;28;20261;-83
2024/04/04 10:51:43;;;;;;;5.27;2.13;;;;;;;21.59;25.66;96251.19;5091076;28;20200;-83
2024/04/04 10:54:09;;;;;;;1.40;1.30;;;;;;;22.27;26.70;96226.91;5102338;28;20723;-83
2024/04/04 10:56:41;;;;;;;2.33;1.50;;;;;;;22.88;24.73;96196.50;5110912;28;20282;-83
2024/04/04 10:59:06;;;;;;;2.20;1.70;;;;;;;23.33;24.00;96262.41;5099161;28;20202;-82
2024/04/04 11:01:33;;;;;;;3.17;1.80;;;;;;;22.33;24.88;96239.75;5096824;28;20631;-82
2024/04/04 11:04:00;;;;;;;2.07;1.60;;;;;;;21.95;24.89;96244.31;5110998;28;20199;-83
2024/04/04 11:06:30;;;;;;;3.93;1.53;;;;;;;22.01;26.73;96254.84;5096683;28;20286;-83
2024/04/04 11:08:56;;;;;;;2.07;1.63;;;;;;;20.92;26.58;96267.13;5111613;28;20218;-82
2024/04/04 11:11:24;;;;;;;2.93;1.57;;;;;;;21.52;26.98;96256.50;5110847;28;20192;-83
2024/04/04 11:13:52;;;;;;;1.47;1.30;;;;;;;22.33;25.91;96257.94;5111421;28;20203;-83
2024/04/04 11:16:20;;;;;;;5.17;2.03;;;;;;;21.48;25.63;96234.00;5090715;28;20683;-83
2024/04/04 11:18:46;;;;;;;2.87;1.67;;;;;;;21.60;25.66;96243.84;5090995;28;20633;-84
2024/04/04 11:21:13;;;;;;;2.70;1.87;;;;;;;21.54;26.13;96242.59;5098026;28;20298;-83
2024/04/04 11:23:39;;;;;;;1.97;1.70;;;;;;;21.62;26.24;96242.34;5110601;28;20214;-84
2024/04/04 11:26:06;;;;;;;3.87;1.57;;;;;;;21.56;28.66;96238.38;5110800;28;20200;-84
2024/04/04 11:28:32;;;;;;;1.57;1.37;;;;;;;21.28;27.49;96240.63;5097396;28;20275;-84
2024/04/04 11:31:02;;;;;;;3.27;1.43;;;;;;;21.21;27.19;96238.59;5111101;28;20242;-83
2024/04/04 11:33:28;;;;;;;2.00;1.77;;;;;;;21.05;28.28;96254.97;5097467;28;20203;-84